Rechercher aéroport 
image banner adimage banner adimage banner ad
image banner ad

50CL - L A Co Sheriff Lakewood

Situé à Lakewood, United States

ICAO - 50CL, IATA -

Données fournies par Airmate  

Information générale

Coordonnées: N33°51'6" W118°7'58"
Élévation : 58 feet MSL.
Variation magnétique : 14° East
Voir autres Aéroports à California

Données opérationnelles

Special qualification required
Heure actuelle UTC:
Heure actuelle locale:
METAR: KLGB 251153Z AUTO 00000KT 10SM CLR 19/16 A2995 RMK AO2 SLP141 T01940161 10206 20194 58005
TAF: KLGB 251158Z 2512/2612 VRB03KT P6SM SCT015 BKN150 FM251600 19006KT P6SM BKN120 FM252300 29008KT P6SM BKN120 FM260400 VRB03KT P6SM BKN120 FM260900 VRB03KT P6SM VCSH OVC100
Voir NOTAMs / SUP AIP / TFR affectant cet aéroport [VIEW]
Fréquences de communication: [VIEW]

Pistes:

Coordonnées de l'aéroport

Adresse: Lakewood United States

Vue satellite de 50CL